createdAt,value
2023-06-02T00:01:51.441Z,72.43
2023-06-02T00:07:04.901Z,72.32
2023-06-02T00:12:13.382Z,72.23
2023-06-02T00:17:21.378Z,72.57
2023-06-02T00:22:31.006Z,72.76
2023-06-02T00:27:38.488Z,73.05
2023-06-02T00:32:46.061Z,73.06
2023-06-02T00:37:54.478Z,73.23
2023-06-02T00:43:01.893Z,72.96
2023-06-02T00:48:10.336Z,73.06
2023-06-02T00:53:18.215Z,73.07
2023-06-02T00:58:26.545Z,73.25
2023-06-02T01:03:34.265Z,73.17
2023-06-02T01:08:43.688Z,73.45
2023-06-02T01:13:52.123Z,74.00
2023-06-02T01:19:00.954Z,74.20
2023-06-02T01:24:10.822Z,74.17
2023-06-02T01:29:18.411Z,74.20
2023-06-02T01:34:32.821Z,74.59
2023-06-02T01:39:42.492Z,75.12
2023-06-02T01:44:51.616Z,75.15
2023-06-02T01:49:59.549Z,75.04
2023-06-02T01:59:58.651Z,75.49
2023-06-02T02:05:06.808Z,75.75
2023-06-02T02:10:15.639Z,76.13
2023-06-02T02:15:23.292Z,76.42
2023-06-02T02:20:31.272Z,77.01
2023-06-02T02:25:38.713Z,77.63
2023-06-02T02:30:47.827Z,77.87
2023-06-02T02:35:56.593Z,78.03
2023-06-02T02:41:05.683Z,78.39
2023-06-02T02:46:13.800Z,78.67
2023-06-02T02:51:21.521Z,79.03
2023-06-02T02:56:30.015Z,79.32
2023-06-02T03:01:41.881Z,79.67
2023-06-02T03:06:50.628Z,80.10
2023-06-02T03:11:59.060Z,80.40
2023-06-02T03:17:07.861Z,80.51
2023-06-02T03:22:15.563Z,80.95
2023-06-02T03:27:22.910Z,81.05
2023-06-02T03:32:30.905Z,81.32
2023-06-02T03:37:38.502Z,80.95
2023-06-02T03:42:46.056Z,80.97
2023-06-02T03:47:53.484Z,81.80
2023-06-02T03:53:01.023Z,81.55
2023-06-02T03:58:08.576Z,81.73
2023-06-02T04:03:17.097Z,81.60
2023-06-02T04:08:24.597Z,81.22
2023-06-02T04:13:32.604Z,80.78
2023-06-02T04:18:42.395Z,80.12
2023-06-02T04:23:49.785Z,79.85
2023-06-02T04:28:57.097Z,79.46
2023-06-02T04:34:04.468Z,78.22
2023-06-02T04:39:27.452Z,77.18
2023-06-02T04:44:35.904Z,76.78
2023-06-02T04:49:43.248Z,76.10
2023-06-02T04:54:51.280Z,75.51
2023-06-02T04:59:58.985Z,74.42
2023-06-02T05:05:07.470Z,74.03
2023-06-02T05:10:15.439Z,72.86
2023-06-02T05:15:24.118Z,72.50
2023-06-02T05:20:32.354Z,71.99
2023-06-02T05:25:40.106Z,71.23
2023-06-02T05:30:47.535Z,70.81
2023-06-02T05:35:55.118Z,70.13
2023-06-02T05:41:02.859Z,69.01
2023-06-02T05:46:10.714Z,67.57
2023-06-02T05:51:18.577Z,66.89
2023-06-02T05:56:27.660Z,67.26
2023-06-02T06:01:35.016Z,66.78
2023-06-02T06:06:42.324Z,65.72
2023-06-02T06:11:50.042Z,65.73
2023-06-02T06:16:57.659Z,64.18
2023-06-02T06:22:05.813Z,63.68
2023-06-02T06:27:13.849Z,63.13
2023-06-02T06:32:21.814Z,63.27
2023-06-02T06:37:30.345Z,62.82
2023-06-02T06:42:37.850Z,61.51
2023-06-02T06:47:45.613Z,58.46
2023-06-02T06:52:53.198Z,58.33
2023-06-02T06:58:00.906Z,59.20
2023-06-02T07:03:08.980Z,58.25
2023-06-02T07:08:16.602Z,58.36
2023-06-02T07:13:24.317Z,58.95
2023-06-02T07:18:31.679Z,59.22
2023-06-02T07:23:39.948Z,58.08
2023-06-02T07:28:47.397Z,58.70
2023-06-02T07:33:55.480Z,56.79
2023-06-02T07:39:03.132Z,55.84
2023-06-02T07:44:11.242Z,55.45
2023-06-02T07:49:18.601Z,56.25
2023-06-02T07:54:26.166Z,55.80
2023-06-02T07:59:33.794Z,55.57
2023-06-02T08:04:41.380Z,55.74
2023-06-02T08:09:49.204Z,55.75
2023-06-02T08:14:56.878Z,55.76
2023-06-02T08:20:05.597Z,55.97
2023-06-02T08:25:13.679Z,55.68
2023-06-02T08:30:22.073Z,54.92
2023-06-02T08:35:29.750Z,54.26
2023-06-02T08:40:39.696Z,54.47
2023-06-02T08:45:49.357Z,54.03
2023-06-02T08:56:34.796Z,52.57
2023-06-02T09:01:45.495Z,52.53
2023-06-02T09:07:13.208Z,52.75
2023-06-02T09:12:21.592Z,52.29
2023-06-02T09:17:31.524Z,51.59
2023-06-02T09:22:42.753Z,51.91
2023-06-02T09:27:55.919Z,52.70
2023-06-02T09:33:08.087Z,52.97
2023-06-02T09:38:16.943Z,53.39
2023-06-02T09:43:32.818Z,53.48
2023-06-02T09:48:41.004Z,53.68
2023-06-02T09:53:51.395Z,53.61
2023-06-02T09:58:59.079Z,54.14
2023-06-02T10:04:08.031Z,54.16
2023-06-02T10:09:41.473Z,54.20
2023-06-02T10:15:02.194Z,54.21
2023-06-02T10:20:30.921Z,54.99
2023-06-02T10:25:57.019Z,54.43
2023-06-02T10:31:13.745Z,54.50
2023-06-02T10:36:21.154Z,55.20
2023-06-02T10:41:59.135Z,55.53
2023-06-02T10:47:41.534Z,54.50
2023-06-02T10:53:11.902Z,54.53
2023-06-02T10:58:20.796Z,54.44
2023-06-02T11:03:34.920Z,54.49
2023-06-02T11:08:43.024Z,53.76
2023-06-02T11:14:03.338Z,53.32
2023-06-02T11:19:10.853Z,53.40
2023-06-02T11:24:25.798Z,53.34
2023-06-02T11:29:33.123Z,52.76
2023-06-02T11:34:41.114Z,54.10
2023-06-02T11:39:56.665Z,53.25
2023-06-02T11:45:04.041Z,52.39
2023-06-02T11:50:16.599Z,51.97
2023-06-02T11:55:28.322Z,52.70
2023-06-02T12:00:36.609Z,52.44
2023-06-02T12:05:46.161Z,52.09
2023-06-02T12:10:57.305Z,51.89
2023-06-02T12:16:25.945Z,51.41
2023-06-02T12:21:34.534Z,50.48
2023-06-02T12:26:46.786Z,49.96
2023-06-02T12:32:00.877Z,49.52
2023-06-02T12:37:09.497Z,49.86
2023-06-02T12:42:19.600Z,50.34
2023-06-02T12:47:29.435Z,50.90
2023-06-02T12:52:37.651Z,50.41
2023-06-02T12:57:46.324Z,50.16
2023-06-02T13:02:53.897Z,50.10
2023-06-02T13:08:02.339Z,49.93
2023-06-02T13:13:10.248Z,48.66
2023-06-02T13:18:19.162Z,49.74
2023-06-02T13:23:27.732Z,49.40
2023-06-02T13:28:37.390Z,49.47
2023-06-02T13:33:45.204Z,49.94
2023-06-02T13:38:53.127Z,50.34
2023-06-02T13:44:01.179Z,50.15
2023-06-02T13:49:09.289Z,49.75
2023-06-02T13:54:18.435Z,49.97
2023-06-02T13:59:25.806Z,49.84
2023-06-02T14:04:33.621Z,50.52
2023-06-02T14:09:42.070Z,50.82
2023-06-02T14:14:49.353Z,51.20
2023-06-02T14:19:56.641Z,51.83
2023-06-02T14:25:05.049Z,52.22
2023-06-02T14:30:15.306Z,53.13
2023-06-02T14:35:23.170Z,53.05
2023-06-02T14:40:31.732Z,53.42
2023-06-02T14:45:40.349Z,54.13
2023-06-02T14:50:47.944Z,54.13
2023-06-02T14:55:55.948Z,54.56
2023-06-02T15:01:04.335Z,53.78
2023-06-02T15:06:11.954Z,54.47
2023-06-02T15:11:19.477Z,54.78
2023-06-02T15:16:27.237Z,55.17
2023-06-02T15:21:35.156Z,55.45
2023-06-02T15:26:42.865Z,55.22
2023-06-02T15:31:50.813Z,55.59
2023-06-02T15:36:58.284Z,55.65
2023-06-02T15:42:06.524Z,54.99
2023-06-02T15:47:14.331Z,55.75
2023-06-02T15:52:22.233Z,55.99
2023-06-02T15:57:29.812Z,55.82
2023-06-02T16:02:37.563Z,56.10
2023-06-02T16:07:45.891Z,56.36
2023-06-02T16:12:57.585Z,56.58
2023-06-02T16:18:05.534Z,56.32
2023-06-02T16:23:13.314Z,55.88
2023-06-02T16:28:21.272Z,55.95
2023-06-02T16:33:28.946Z,56.60
2023-06-02T16:38:38.911Z,56.97
2023-06-02T16:43:46.731Z,56.74
2023-06-02T16:48:54.310Z,57.14
2023-06-02T16:54:01.986Z,57.21
2023-06-02T16:59:09.885Z,56.89
2023-06-02T17:04:18.188Z,57.11
2023-06-02T17:09:25.981Z,57.39
2023-06-02T17:14:33.672Z,58.14
2023-06-02T17:19:41.426Z,58.66
2023-06-02T17:24:50.083Z,59.81
2023-06-02T17:29:57.574Z,60.19
2023-06-02T17:35:06.150Z,61.11
2023-06-02T17:40:15.041Z,61.27
2023-06-02T17:45:22.334Z,61.72
2023-06-02T17:50:30.049Z,62.11
2023-06-02T17:55:37.878Z,63.13
2023-06-02T18:00:45.438Z,64.74
2023-06-02T18:05:53.115Z,66.53
2023-06-02T18:11:00.379Z,67.50
2023-06-02T18:16:08.618Z,67.32
2023-06-02T18:21:16.113Z,67.50
2023-06-02T18:26:23.845Z,68.07
2023-06-02T18:31:31.420Z,68.44
2023-06-02T18:36:39.059Z,68.10
2023-06-02T18:41:47.943Z,67.78
2023-06-02T18:46:55.900Z,67.66
2023-06-02T18:52:03.625Z,67.62
2023-06-02T18:57:13.953Z,67.50
2023-06-02T19:02:21.666Z,67.44
2023-06-02T19:07:29.935Z,67.39
2023-06-02T19:12:37.246Z,67.09
2023-06-02T19:17:44.474Z,67.17
2023-06-02T19:22:52.701Z,67.57
2023-06-02T19:28:00.184Z,67.89
2023-06-02T19:33:07.476Z,68.05
2023-06-02T19:38:14.893Z,68.34
2023-06-02T19:43:22.409Z,68.74
2023-06-02T19:48:30.117Z,68.95
2023-06-02T19:53:37.587Z,69.12
2023-06-02T19:58:45.001Z,69.32
2023-06-02T20:03:52.827Z,69.61
2023-06-02T20:09:00.724Z,69.47
2023-06-02T20:18:06.817Z,69.52
2023-06-02T20:23:14.001Z,69.68
2023-06-02T20:28:21.153Z,69.58
2023-06-02T20:33:28.490Z,69.77
2023-06-02T20:38:35.876Z,70.01
2023-06-02T20:43:43.223Z,69.76
2023-06-02T20:48:50.844Z,69.16
2023-06-02T20:53:58.175Z,69.05
2023-06-02T20:59:05.381Z,68.75
2023-06-02T21:04:12.848Z,68.74
2023-06-02T21:09:20.339Z,68.66
2023-06-02T21:14:27.637Z,68.27
2023-06-02T21:19:35.165Z,68.46
2023-06-02T21:24:42.422Z,68.75
2023-06-02T21:29:50.020Z,69.26
2023-06-02T21:34:57.433Z,69.22
2023-06-02T21:40:05.644Z,69.45
2023-06-02T21:45:14.591Z,69.97
2023-06-02T21:50:22.243Z,70.71
2023-06-02T21:55:29.680Z,70.91
2023-06-02T22:00:36.923Z,71.03
2023-06-02T22:05:44.175Z,71.28
2023-06-02T22:10:51.780Z,71.71
2023-06-02T22:15:59.068Z,72.11
2023-06-02T22:21:07.112Z,73.02
2023-06-02T22:26:14.478Z,73.45
2023-06-02T22:31:21.760Z,74.15
2023-06-02T22:36:29.080Z,74.97
2023-06-02T22:41:36.422Z,75.53
2023-06-02T22:46:43.693Z,75.99
2023-06-02T22:51:51.245Z,76.30
2023-06-02T22:56:58.677Z,76.74
2023-06-02T23:02:06.466Z,77.18
2023-06-02T23:07:13.666Z,77.60
2023-06-02T23:12:21.064Z,78.23
2023-06-02T23:17:28.527Z,78.69
2023-06-02T23:22:35.822Z,78.99
2023-06-02T23:27:43.590Z,79.01
2023-06-02T23:32:50.825Z,78.98
2023-06-02T23:37:58.211Z,79.61
2023-06-02T23:43:07.320Z,79.93
2023-06-02T23:48:14.932Z,80.15
2023-06-02T23:53:22.526Z,80.49
2023-06-02T23:58:29.847Z,80.89
